createdAt,value
2023-03-02T00:04:45.137Z,20.30
2023-03-02T00:09:48.088Z,37.00
2023-03-02T00:14:51.215Z,26.63
2023-03-02T00:19:55.637Z,31.03
2023-03-02T00:24:58.578Z,28.13
2023-03-02T00:30:01.898Z,34.70
2023-03-02T00:35:06.124Z,27.80
2023-03-02T00:40:10.698Z,23.27
2023-03-02T00:45:13.556Z,23.67
2023-03-02T00:50:16.716Z,16.30
2023-03-02T00:55:20.056Z,16.87
2023-03-02T01:00:24.468Z,18.43
2023-03-02T01:05:27.428Z,18.77
2023-03-02T01:10:32.959Z,18.73
2023-03-02T01:15:36.947Z,11.67
2023-03-02T01:20:39.924Z,17.80
2023-03-02T01:25:42.865Z,13.23
2023-03-02T01:30:47.173Z,17.40
2023-03-02T01:35:50.247Z,16.27
2023-03-02T01:40:53.327Z,14.37
2023-03-02T01:46:02.000Z,16.30
2023-03-02T01:51:07.154Z,14.33
2023-03-02T01:56:10.632Z,13.83
2023-03-02T02:01:17.381Z,13.07
2023-03-02T02:06:25.819Z,12.27
2023-03-02T02:11:28.680Z,13.43
2023-03-02T02:16:35.098Z,13.77
2023-03-02T02:21:38.401Z,16.33
2023-03-02T02:26:52.129Z,13.23
2023-03-02T02:32:12.233Z,14.10
2023-03-02T02:37:22.246Z,12.77
2023-03-02T02:42:31.416Z,12.47
2023-03-02T02:47:35.308Z,13.33
2023-03-02T02:52:41.063Z,12.67
2023-03-02T02:57:44.048Z,13.97
2023-03-02T03:02:56.030Z,17.90
2023-03-02T03:08:46.235Z,16.77
2023-03-02T03:14:08.491Z,18.20
2023-03-02T03:19:23.924Z,17.40
2023-03-02T03:24:29.611Z,19.17
2023-03-02T03:29:34.652Z,19.33
2023-03-02T03:34:41.065Z,16.57
2023-03-02T03:39:45.129Z,20.67
2023-03-02T03:44:48.096Z,16.67
2023-03-02T03:49:51.147Z,15.10
2023-03-02T03:54:54.063Z,20.90
2023-03-02T03:59:57.529Z,14.13
2023-03-02T04:05:06.486Z,14.77
2023-03-02T04:10:10.945Z,17.30
2023-03-02T04:15:16.593Z,20.57
2023-03-02T04:20:22.841Z,16.67
2023-03-02T04:25:29.237Z,15.13
2023-03-02T04:30:33.551Z,15.93
2023-03-02T04:35:36.785Z,15.40
2023-03-02T04:40:39.608Z,13.47
2023-03-02T04:45:42.534Z,11.27
2023-03-02T04:50:45.548Z,12.03
2023-03-02T04:55:48.712Z,11.87
2023-03-02T05:00:51.776Z,14.90
2023-03-02T05:05:54.783Z,13.83
2023-03-02T05:10:58.611Z,14.83
2023-03-02T05:16:02.896Z,13.83
2023-03-02T05:21:06.379Z,13.40
2023-03-02T05:26:10.542Z,12.77
2023-03-02T05:31:23.516Z,13.27
2023-03-02T05:36:26.759Z,11.13
2023-03-02T05:41:30.063Z,11.80
2023-03-02T05:46:33.460Z,13.50
2023-03-02T05:51:36.682Z,16.47
2023-03-02T05:56:39.791Z,22.40
2023-03-02T06:01:43.353Z,28.73
2023-03-02T06:06:46.296Z,16.73
2023-03-02T06:11:49.297Z,16.10
2023-03-02T06:16:52.230Z,12.20
2023-03-02T06:21:55.420Z,13.87
2023-03-02T06:26:58.296Z,12.73
2023-03-02T06:32:01.528Z,17.30
2023-03-02T06:37:04.576Z,12.23
2023-03-02T06:42:07.676Z,10.33
2023-03-02T06:47:10.694Z,14.00
2023-03-02T06:52:14.451Z,14.57
2023-03-02T06:57:17.398Z,33.03
2023-03-02T07:02:20.380Z,34.00
2023-03-02T07:07:23.737Z,27.53
2023-03-02T07:12:26.579Z,26.90
2023-03-02T07:17:29.950Z,19.03
2023-03-02T07:22:33.630Z,30.57
2023-03-02T07:27:37.610Z,26.60
2023-03-02T07:32:41.065Z,36.53
2023-03-02T07:37:44.818Z,28.27
2023-03-02T07:42:47.780Z,31.70
2023-03-02T07:47:51.316Z,40.50
2023-03-02T07:52:54.269Z,37.40
2023-03-02T07:57:57.211Z,28.77
2023-03-02T08:03:00.920Z,13.20
2023-03-02T08:08:04.257Z,7.73
2023-03-02T08:13:07.257Z,13.27
2023-03-02T08:18:10.445Z,16.77
2023-03-02T08:23:13.365Z,11.20
2023-03-02T08:28:16.632Z,17.73
2023-03-02T08:33:19.644Z,9.77
2023-03-02T08:38:23.761Z,14.60
2023-03-02T08:43:26.780Z,9.40
2023-03-02T08:48:30.045Z,8.45
2023-03-02T08:53:38.336Z,8.07
2023-03-02T08:58:41.289Z,7.35
2023-03-02T09:03:44.431Z,7.32
2023-03-02T09:08:47.858Z,8.57
2023-03-02T09:13:51.343Z,10.07
2023-03-02T09:18:55.144Z,8.70
2023-03-02T09:23:58.565Z,7.47
2023-03-02T09:29:01.947Z,7.97
2023-03-02T09:34:05.629Z,7.10
2023-03-02T09:39:12.397Z,9.45
2023-03-02T09:44:42.606Z,8.07
2023-03-02T09:49:53.794Z,7.50
2023-03-02T09:55:21.107Z,7.72
2023-03-02T10:00:26.922Z,5.95
2023-03-02T10:05:42.264Z,7.05
2023-03-02T10:11:12.899Z,6.72
2023-03-02T10:16:49.404Z,10.00
2023-03-02T10:22:02.182Z,8.00
2023-03-02T10:27:28.678Z,7.60
2023-03-02T10:32:38.590Z,6.18
2023-03-02T10:37:41.831Z,6.25
2023-03-02T10:42:44.900Z,8.27
2023-03-02T10:47:47.921Z,7.63
2023-03-02T10:53:00.124Z,8.85
2023-03-02T10:58:07.411Z,6.47
2023-03-02T11:03:23.679Z,7.72
2023-03-02T11:08:28.810Z,6.50
2023-03-02T11:13:38.300Z,13.48
2023-03-02T11:19:03.120Z,8.55
2023-03-02T11:24:42.340Z,7.55
2023-03-02T11:30:12.767Z,6.35
2023-03-02T11:35:58.467Z,6.20
2023-03-02T11:41:19.018Z,8.50
2023-03-02T11:46:32.329Z,8.40
2023-03-02T11:51:57.850Z,6.53
2023-03-02T11:57:01.701Z,7.43
2023-03-02T12:02:09.086Z,7.15
2023-03-02T12:07:27.727Z,5.93
2023-03-02T12:12:57.682Z,7.28
2023-03-02T12:18:00.776Z,10.32
2023-03-02T12:23:10.654Z,7.82
2023-03-02T12:28:31.915Z,8.15
2023-03-02T12:33:46.809Z,7.88
2023-03-02T12:39:26.389Z,8.23
2023-03-02T12:44:55.156Z,7.53
2023-03-02T12:50:16.275Z,10.40
2023-03-02T13:00:31.556Z,9.43
2023-03-02T13:05:35.989Z,8.13
2023-03-02T13:10:53.755Z,6.33
2023-03-02T13:16:21.934Z,6.70
2023-03-02T13:21:45.229Z,12.10
2023-03-02T13:27:07.063Z,9.77
2023-03-02T13:32:34.610Z,36.13
2023-03-02T13:37:40.960Z,9.33
2023-03-02T13:42:43.850Z,7.30
2023-03-02T13:47:46.568Z,7.33
2023-03-02T13:52:50.334Z,8.40
2023-03-02T13:57:56.016Z,8.50
2023-03-02T14:02:59.969Z,24.13
2023-03-02T14:08:03.527Z,10.93
2023-03-02T14:13:10.785Z,21.53
2023-03-02T14:18:45.012Z,8.30
2023-03-02T14:23:48.512Z,10.07
2023-03-02T14:29:04.701Z,11.20
2023-03-02T14:34:13.731Z,6.50
2023-03-02T14:39:39.256Z,9.67
2023-03-02T14:44:44.255Z,8.20
2023-03-02T14:49:48.997Z,11.07
2023-03-02T14:54:57.998Z,8.50
2023-03-02T15:00:01.378Z,8.47
2023-03-02T15:05:06.448Z,6.70
2023-03-02T15:10:20.343Z,9.23
2023-03-02T15:15:24.660Z,7.87
2023-03-02T15:20:28.907Z,8.60
2023-03-02T15:25:32.075Z,47.50
2023-03-02T15:30:35.298Z,16.97
2023-03-02T15:35:40.349Z,12.00
2023-03-02T15:40:43.091Z,13.60
2023-03-02T15:45:46.904Z,12.90
2023-03-02T15:51:01.747Z,11.10
2023-03-02T15:56:12.195Z,10.10
2023-03-02T16:06:19.298Z,10.00
2023-03-02T16:11:23.394Z,9.27
2023-03-02T16:16:26.913Z,13.17
2023-03-02T16:21:30.062Z,26.17
2023-03-02T16:26:36.146Z,24.03
2023-03-02T16:31:39.584Z,31.90
2023-03-02T16:36:43.225Z,25.63
2023-03-02T16:41:46.354Z,32.33
2023-03-02T16:46:49.197Z,24.33
2023-03-02T16:51:58.412Z,29.73
2023-03-02T16:57:01.562Z,42.67
2023-03-02T17:02:04.504Z,64.57
2023-03-02T17:07:08.372Z,57.73
2023-03-02T17:12:11.360Z,133.80
2023-03-02T17:17:15.513Z,200.30
2023-03-02T17:22:18.510Z,162.20
2023-03-02T17:27:25.624Z,96.37
2023-03-02T17:32:28.935Z,87.67
2023-03-02T17:37:33.222Z,62.53
2023-03-02T17:42:39.453Z,56.70
2023-03-02T17:47:42.372Z,46.23
2023-03-02T17:52:45.355Z,45.13
2023-03-02T17:57:48.357Z,47.67
2023-03-02T18:02:52.112Z,39.17
2023-03-02T18:07:55.350Z,38.43
2023-03-02T18:12:58.877Z,35.23
2023-03-02T18:18:01.932Z,42.80
2023-03-02T18:23:05.272Z,36.07
2023-03-02T18:28:08.246Z,21.00
2023-03-02T18:33:11.320Z,22.83
2023-03-02T18:38:14.291Z,31.80
2023-03-02T18:43:17.200Z,26.23
2023-03-02T18:48:20.276Z,25.67
2023-03-02T18:53:23.348Z,24.23
2023-03-02T18:58:27.668Z,21.53
2023-03-02T19:03:31.264Z,35.33
2023-03-02T19:08:35.805Z,35.53
2023-03-02T19:13:38.888Z,36.70
2023-03-02T19:18:41.929Z,61.57
2023-03-02T19:23:46.483Z,51.60
2023-03-02T19:28:49.787Z,35.77
2023-03-02T19:33:52.840Z,30.87
2023-03-02T19:38:55.952Z,24.63
2023-03-02T19:43:59.085Z,22.23
2023-03-02T19:49:04.604Z,24.33
2023-03-02T19:54:07.739Z,256.50
2023-03-02T19:59:11.265Z,675.40
2023-03-02T20:04:14.354Z,645.07
2023-03-02T20:09:19.841Z,340.63
2023-03-02T20:14:33.303Z,225.53
2023-03-02T20:19:36.943Z,140.93
2023-03-02T20:24:41.205Z,157.37
2023-03-02T20:29:44.519Z,100.10
2023-03-02T20:34:47.592Z,96.50
2023-03-02T20:39:50.691Z,75.63
2023-03-02T20:44:56.522Z,86.23
2023-03-02T20:50:00.381Z,73.30
2023-03-02T20:55:06.258Z,89.27
2023-03-02T21:00:16.842Z,79.10
2023-03-02T21:05:21.575Z,72.30
2023-03-02T21:10:33.728Z,62.67
2023-03-02T21:15:37.411Z,38.37
2023-03-02T21:20:40.609Z,37.90
2023-03-02T21:25:44.824Z,54.90
2023-03-02T21:30:47.917Z,47.17
2023-03-02T21:35:50.851Z,67.93
2023-03-02T21:40:54.060Z,65.97
2023-03-02T21:45:57.088Z,88.77
2023-03-02T21:51:00.477Z,90.37
2023-03-02T21:56:03.666Z,77.77
2023-03-02T22:01:07.412Z,55.03
2023-03-02T22:06:30.501Z,48.70
2023-03-02T22:11:37.459Z,48.50
2023-03-02T22:16:45.174Z,42.07
2023-03-02T22:21:49.446Z,56.97
2023-03-02T22:27:23.007Z,78.97
2023-03-02T22:32:36.121Z,56.00
2023-03-02T22:37:39.426Z,47.03
2023-03-02T22:42:42.438Z,41.87
2023-03-02T22:47:51.319Z,39.80
2023-03-02T22:52:57.503Z,47.27
2023-03-02T22:58:30.063Z,58.73
2023-03-02T23:08:48.528Z,45.23
2023-03-02T23:13:53.465Z,42.77
2023-03-02T23:18:59.375Z,56.90
2023-03-02T23:24:02.706Z,77.37
2023-03-02T23:29:06.768Z,75.20
2023-03-02T23:34:11.133Z,60.03
2023-03-02T23:39:14.480Z,65.73
2023-03-02T23:44:19.339Z,57.73
2023-03-02T23:49:22.502Z,57.77
2023-03-02T23:54:25.510Z,49.80
2023-03-02T23:59:28.574Z,37.03
